Time;durP1;ratioP1;P1;durP2;ratioP2;P2;SDS_P1;SDS_P2;PMS_P1;PMS_P2;Temp;Humidity;BMP_temperature;BMP_pressure;BME280_temperature;BME280_humidity;BME280_pressure;Samples;Min_cycle;Max_cycle;Signal;HPM_P1;HPM_P2
2021/03/18 00:02:04;;;;;;;;;;;;;;;1.22;74.46;98054.78;5051914;28;20405;-75
2021/03/18 00:04:30;;;;;;;16.20;8.90;;;;;;;1.07;75.38;98065.97;5051206;28;20418;-75
2021/03/18 00:06:55;;;;;;;;;;;;;;;1.16;74.99;98053.81;5033530;28;20051;-74
2021/03/18 00:09:21;;;;;;;15.68;7.43;;;;;;;1.16;75.05;98053.81;5031296;28;20293;-75
2021/03/18 00:11:47;;;;;;;;;;;;;;;1.20;74.82;98055.00;5031897;28;20038;-75
2021/03/18 00:14:15;;;;;;;17.77;7.53;;;;;;;1.11;74.23;98047.50;5029655;28;19913;-75
2021/03/18 00:16:41;;;;;;;16.10;8.27;;;;;;;1.06;74.78;98054.41;5029984;28;20037;-75
2021/03/18 00:19:07;;;;;;;15.70;8.02;;;;;;;0.91;75.61;98058.56;5031103;28;20124;-75
2021/03/18 00:21:33;;;;;;;;;;;;;;;0.97;75.67;98049.59;5031975;28;20068;-75
2021/03/18 00:23:58;;;;;;;11.10;7.97;;;;;;;0.98;75.42;98049.34;5030279;28;19917;-75
2021/03/18 00:26:24;;;;;;;;;;;;;;;0.98;75.51;98052.03;5032061;28;20025;-75
2021/03/18 00:28:51;;;;;;;13.88;7.93;;;;;;;0.75;75.81;98030.44;5031050;28;19917;-74
2021/03/18 00:31:22;;;;;;;16.30;7.82;;;;;;;0.71;76.05;98039.25;5031400;28;20036;-74
2021/03/18 00:33:48;;;;;;;13.13;7.43;;;;;;;0.72;76.33;98041.69;5031722;28;20576;-75
2021/03/18 00:36:14;;;;;;;15.98;8.65;;;;;;;0.81;76.49;98028.72;5032035;28;20529;-74
2021/03/18 00:38:39;;;;;;;14.70;6.72;;;;;;;0.85;76.27;98038.78;5032461;28;20045;-75
2021/03/18 00:41:07;;;;;;;;;;;;;;;0.76;76.21;98048.25;5032570;28;20474;-74
2021/03/18 00:43:32;;;;;;;17.10;8.48;;;;;;;0.76;76.39;98045.56;5031172;28;19913;-73
2021/03/18 00:45:58;;;;;;;15.15;8.18;;;;;;;0.70;76.48;98043.78;5031117;28;20375;-74
2021/03/18 00:48:23;;;;;;;16.92;8.00;;;;;;;0.75;76.21;98059.25;5030935;28;20478;-74
2021/03/18 00:50:51;;;;;;;17.95;7.78;;;;;;;0.80;75.91;98057.53;5031527;28;20022;-74
2021/03/18 00:53:22;;;;;;;12.15;8.07;;;;;;;0.63;76.65;98059.22;5031104;28;20041;-74
2021/03/18 00:55:48;;;;;;;15.30;8.55;;;;;;;0.53;76.98;98064.34;5031327;28;20478;-74
2021/03/18 00:58:15;;;;;;;14.13;7.53;;;;;;;0.30;77.70;98053.47;5031566;28;20030;-74
2021/03/18 01:00:44;;;;;;;13.40;7.35;;;;;;;0.06;78.57;98049.06;5031837;28;20028;-74
2021/03/18 01:03:11;;;;;;;13.02;7.25;;;;;;;0.03;78.91;98050.34;5032472;28;20052;-73
2021/03/18 01:05:43;;;;;;;10.57;6.32;;;;;;;-0.01;78.87;98038.38;5032686;28;20026;-75
2021/03/18 01:08:11;;;;;;;11.15;5.80;;;;;;;-0.09;79.53;98038.66;5031704;28;20052;-74
2021/03/18 01:10:50;;;;;;;10.80;6.32;;;;;;;-0.10;79.66;98043.25;5031467;28;20025;-74
2021/03/18 01:13:19;;;;;;;11.52;6.13;;;;;;;-0.22;79.90;98025.41;5033717;28;20076;-75
2021/03/18 01:15:53;;;;;;;10.85;6.60;;;;;;;-0.16;79.94;98022.63;5033534;28;20073;-74
2021/03/18 01:18:22;;;;;;;14.60;6.68;;;;;;;0.04;79.35;98029.63;5033769;28;20073;-75
2021/03/18 01:20:48;;;;;;;9.82;5.97;;;;;;;-0.01;79.29;98020.38;5035048;28;20554;-75
2021/03/18 01:23:14;;;;;;;10.93;6.18;;;;;;;0.06;79.45;98030.22;5035168;28;20044;-75
2021/03/18 01:25:39;;;;;;;10.60;6.18;;;;;;;0.00;79.47;98027.38;5034547;28;20013;-75
2021/03/18 01:28:05;;;;;;;;;;;;;;;-0.09;79.80;98025.22;5038088;28;20047;-75
2021/03/18 01:30:31;;;;;;;15.60;6.85;;;;;;;-0.06;79.56;98033.66;5043296;28;19913;-74
2021/03/18 01:32:58;;;;;;;11.63;6.22;;;;;;;-0.20;80.29;98034.06;5034379;28;20021;-75
2021/03/18 01:35:23;;;;;;;10.55;6.35;;;;;;;-0.31;80.70;98022.19;5034080;28;20032;-74
2021/03/18 01:37:50;;;;;;;12.48;6.40;;;;;;;-0.14;80.08;98020.56;5033599;28;20037;-75
2021/03/18 01:40:20;;;;;;;11.73;6.75;;;;;;;-0.23;79.74;98003.09;5045810;28;20036;-75
2021/03/18 01:42:46;;;;;;;9.82;5.43;;;;;;;-0.26;80.30;98016.97;5052390;28;20139;-75
2021/03/18 01:45:12;;;;;;;12.48;5.15;;;;;;;-0.27;80.63;98012.63;5053738;28;20528;-75
2021/03/18 01:47:40;;;;;;;11.65;5.90;;;;;;;-0.03;79.73;98017.09;5053656;28;20502;-77
2021/03/18 01:50:08;;;;;;;9.82;5.70;;;;;;;-0.04;79.48;98010.09;5052509;28;20091;-75
2021/03/18 01:52:33;;;;;;;11.00;6.55;;;;;;;-0.03;79.44;98006.34;5053724;28;20061;-75
2021/03/18 01:54:59;;;;;;;9.50;5.63;;;;;;;-0.16;79.36;97995.75;5052035;28;20057;-75
2021/03/18 01:57:24;;;;;;;;;;;;;;;-0.10;79.61;98013.69;5047732;28;20037;-75
2021/03/18 01:59:51;;;;;;;12.90;6.32;;;;;;;-0.24;79.86;97998.75;5033447;28;19963;-75
2021/03/18 02:02:17;;;;;;;7.95;4.85;;;;;;;-0.32;80.44;97993.69;5032205;28;20492;-75
2021/03/18 02:04:42;;;;;;;13.07;6.13;;;;;;;-0.36;80.50;97983.63;5033379;28;20104;-75
2021/03/18 02:07:08;;;;;;;13.25;6.88;;;;;;;-0.29;80.18;97985.19;5033705;28;20018;-74
2021/03/18 02:09:33;;;;;;;;;;;;;;;-0.03;79.59;97997.44;5033454;28;20025;-75
2021/03/18 02:11:59;;;;;;;10.20;5.18;;;;;;;-0.22;79.79;97988.59;5033358;28;20427;-74
2021/03/18 02:14:24;;;;;;;15.30;6.47;;;;;;;-0.42;80.60;97985.34;5033358;28;20363;-75
2021/03/18 02:16:53;;;;;;;;;;;;;;;-0.30;80.54;98002.34;5033591;28;20028;-75
2021/03/18 02:19:58;;;;;;;9.10;5.38;;;;;;;-0.40;80.75;97999.34;5033002;28;20328;-75
2021/03/18 02:22:46;;;;;;;9.65;5.13;;;;;;;-0.44;81.17;98002.72;5033090;28;20470;-76
2021/03/18 02:25:29;;;;;;;11.57;5.95;;;;;;;-0.56;81.19;98003.47;5033359;28;20080;-75
2021/03/18 02:28:10;;;;;;;12.23;6.57;;;;;;;-0.54;81.42;98008.63;5031777;28;20773;-75
2021/03/18 02:30:56;;;;;;;12.50;6.15;;;;;;;-0.77;82.09;98000.38;5032290;28;20037;-75
2021/03/18 02:33:58;;;;;;;10.65;6.13;;;;;;;-0.83;82.43;98004.78;5033306;28;20034;-75
2021/03/18 02:36:44;;;;;;;13.68;5.57;;;;;;;-0.62;82.20;98003.53;5034631;28;20463;-75
2021/03/18 02:39:22;;;;;;;13.95;5.97;;;;;;;-0.63;82.08;97999.22;5032895;28;20080;-74
2021/03/18 02:41:54;;;;;;;10.15;5.30;;;;;;;-0.58;81.82;98007.41;5033063;28;20025;-74
2021/03/18 02:44:27;;;;;;;13.45;6.18;;;;;;;-0.53;81.63;98010.25;5032590;28;20030;-74
2021/03/18 02:47:13;;;;;;;12.40;5.40;;;;;;;-0.50;81.62;98009.81;5032538;28;20049;-74
2021/03/18 02:49:44;;;;;;;11.52;5.85;;;;;;;-0.68;82.01;98017.84;5031159;28;20508;-74
2021/03/18 02:52:13;;;;;;;11.95;5.97;;;;;;;-0.77;82.15;97997.69;5032497;28;20034;-75
2021/03/18 02:54:40;;;;;;;16.25;5.95;;;;;;;-0.74;82.19;98002.63;5032603;28;20028;-75
2021/03/18 02:57:09;;;;;;;11.38;6.63;;;;;;;-0.87;82.88;97997.38;5032328;28;20037;-75
2021/03/18 02:59:39;;;;;;;10.30;6.05;;;;;;;-0.85;82.94;97996.16;5032585;28;20036;-75
2021/03/18 03:02:15;;;;;;;13.52;6.65;;;;;;;-0.81;82.88;98015.28;5032695;28;20032;-75
2021/03/18 03:04:42;;;;;;;11.80;5.82;;;;;;;-0.62;82.43;98022.31;5032838;28;20033;-75
2021/03/18 03:07:10;;;;;;;12.00;6.72;;;;;;;-0.71;81.93;98013.75;5033113;28;20033;-75
2021/03/18 03:09:36;;;;;;;11.70;6.50;;;;;;;-0.72;82.12;98016.66;5030844;28;20132;-75
2021/03/18 03:12:03;;;;;;;9.20;5.95;;;;;;;-0.60;81.94;98014.88;5031373;28;20116;-75
2021/03/18 03:14:31;;;;;;;12.68;5.97;;;;;;;-0.71;82.12;98010.25;5031676;28;20017;-75
2021/03/18 03:16:58;;;;;;;11.35;6.03;;;;;;;-0.83;82.14;98017.38;5032780;28;20025;-75
2021/03/18 03:19:23;;;;;;;10.27;6.53;;;;;;;-1.05;82.99;97983.94;5032249;28;20040;-74
2021/03/18 03:21:49;;;;;;;10.07;6.13;;;;;;;-0.72;82.69;98038.16;5031216;28;20029;-75
2021/03/18 03:24:15;;;;;;;8.50;6.00;;;;;;;-0.69;82.57;98035.03;5064637;28;20026;-75
2021/03/18 03:26:41;;;;;;;10.90;7.30;;;;;;;-0.80;81.87;97998.97;5032389;28;20022;-75
2021/03/18 03:29:07;;;;;;;;;;;;;;;-0.82;82.22;98033.28;5032434;28;20029;-75
2021/03/18 03:31:32;;;;;;;16.23;8.43;;;;;;;-0.93;83.11;98038.53;5030539;28;20011;-74
2021/03/18 03:33:58;;;;;;;14.10;7.80;;;;;;;-0.97;83.73;98034.66;5031845;28;20121;-75
2021/03/18 03:36:23;;;;;;;;;;;;;;;-0.80;83.39;98030.38;5032399;28;20026;-75
2021/03/18 03:38:52;;;;;;;13.80;6.82;;;;;;;-0.92;83.31;98027.59;5031777;28;20011;-75
2021/03/18 03:41:18;;;;;;;16.15;7.18;;;;;;;-0.84;83.46;98035.34;5030996;28;20095;-75
2021/03/18 03:43:43;;;;;;;10.23;6.35;;;;;;;-0.96;83.76;98028.25;5031709;28;20494;-75
2021/03/18 03:46:09;;;;;;;9.00;5.10;;;;;;;-1.09;84.01;98019.28;5031932;28;20063;-75
2021/03/18 03:48:35;;;;;;;8.35;6.05;;;;;;;-0.91;83.62;98017.69;5031571;28;20030;-75
2021/03/18 03:51:02;;;;;;;9.23;5.97;;;;;;;-0.97;83.18;98007.84;5031303;28;20040;-76
2021/03/18 03:53:46;;;;;;;6.97;5.20;;;;;;;-1.00;83.42;98019.00;5031673;28;20022;-75
2021/03/18 03:56:30;;;;;;;11.52;5.70;;;;;;;-0.97;83.59;98014.00;5031552;28;20033;-76
2021/03/18 03:58:57;;;;;;;11.52;4.95;;;;;;;-0.95;83.64;98016.47;5033059;28;20029;-75
2021/03/18 04:01:26;;;;;;;12.32;5.97;;;;;;;-1.02;83.78;98019.22;5040678;28;20025;-74
2021/03/18 04:03:58;;;;;;;10.57;5.68;;;;;;;-1.05;84.10;98016.16;5050366;28;20024;-75
2021/03/18 04:06:24;;;;;;;10.65;5.72;;;;;;;-0.93;83.39;98043.91;5051047;28;20029;-76
2021/03/18 04:08:51;;;;;;;11.25;6.53;;;;;;;-1.07;84.10;98046.69;5049708;28;20036;-75
2021/03/18 04:11:18;;;;;;;13.80;6.22;;;;;;;-1.16;84.48;98039.16;5047746;28;20032;-75
2021/03/18 04:13:45;;;;;;;10.80;6.13;;;;;;;-1.00;84.50;98043.16;5050395;28;20025;-75
2021/03/18 04:16:11;;;;;;;7.65;5.53;;;;;;;-1.22;83.94;98040.84;5050404;28;20016;-75
2021/03/18 04:18:42;;;;;;;8.18;4.78;;;;;;;-1.32;84.17;98027.13;5050218;28;20040;-75
2021/03/18 04:21:10;;;;;;;8.00;4.85;;;;;;;-1.21;83.71;98029.06;5050422;28;20104;-75
2021/03/18 04:23:37;;;;;;;9.80;5.03;;;;;;;-1.31;83.72;98031.41;5039173;28;20021;-74
2021/03/18 04:26:04;;;;;;;8.32;3.70;;;;;;;-1.36;84.01;98035.81;5049770;28;20068;-74
2021/03/18 04:28:35;;;;;;;5.80;3.63;;;;;;;-1.38;84.32;98049.41;5048665;28;20033;-73
2021/03/18 04:31:01;;;;;;;6.35;4.07;;;;;;;-1.33;84.23;98046.91;5036945;28;20017;-73
2021/03/18 04:33:28;;;;;;;8.55;4.20;;;;;;;-1.28;84.33;98049.75;5030625;28;20029;-74
2021/03/18 04:35:57;;;;;;;9.23;5.03;;;;;;;-1.24;84.42;98045.59;5040317;28;20041;-74
2021/03/18 04:38:28;;;;;;;6.35;4.22;;;;;;;-1.30;84.02;98045.66;5050257;28;20501;-74
2021/03/18 04:40:54;;;;;;;9.75;5.85;;;;;;;-1.49;84.21;98020.63;5047205;28;20116;-74
2021/03/18 04:43:21;;;;;;;9.32;5.63;;;;;;;-1.50;84.61;98034.25;5029129;28;20129;-73
2021/03/18 04:45:48;;;;;;;11.45;5.57;;;;;;;-1.41;84.72;98027.59;5030344;28;20025;-74
2021/03/18 04:48:18;;;;;;;8.25;4.80;;;;;;;-1.24;84.75;98042.09;5040838;28;20029;-74
2021/03/18 04:50:44;;;;;;;14.85;6.65;;;;;;;-1.33;84.97;98041.56;5048895;28;20111;-74
2021/03/18 04:53:09;;;;;;;11.07;5.93;;;;;;;-1.21;85.09;98055.91;5041532;28;20035;-74
2021/03/18 04:55:35;;;;;;;15.30;9.23;;;;;;;-1.19;84.86;98048.44;5036788;28;20485;-73
2021/03/18 04:58:03;;;;;;;10.88;6.70;;;;;;;-1.04;84.84;98050.81;5035356;28;20069;-74
2021/03/18 05:00:30;;;;;;;9.88;6.65;;;;;;;-1.16;85.09;98061.44;5036853;28;20037;-74
2021/03/18 05:03:06;;;;;;;13.05;7.53;;;;;;;-1.07;85.43;98056.63;5041375;28;20103;-74
2021/03/18 05:05:33;;;;;;;10.90;6.50;;;;;;;-1.15;84.89;98049.66;5056966;28;20032;-74
2021/03/18 05:08:00;;;;;;;10.68;5.47;;;;;;;-1.15;84.75;98060.41;5055823;28;20025;-73
2021/03/18 05:10:28;;;;;;;10.50;5.85;;;;;;;-0.92;83.74;98061.66;5056775;28;20035;-74
2021/03/18 05:12:56;;;;;;;10.85;5.18;;;;;;;-1.09;83.83;98062.19;5056803;28;20021;-74
2021/03/18 05:15:22;;;;;;;9.93;4.95;;;;;;;-1.07;83.65;98065.47;5055618;28;20025;-74
2021/03/18 05:17:49;;;;;;;6.95;4.50;;;;;;;-1.26;83.06;98030.78;5056614;28;20515;-74
2021/03/18 05:20:18;;;;;;;8.55;5.10;;;;;;;-1.12;83.91;98059.13;5055192;28;20086;-74
2021/03/18 05:22:46;;;;;;;10.63;5.05;;;;;;;-1.02;83.77;98058.66;5056455;28;20031;-75
2021/03/18 05:25:12;;;;;;;7.78;4.03;;;;;;;-1.17;83.74;98062.47;5056575;28;20041;-74
2021/03/18 05:27:39;;;;;;;8.90;5.10;;;;;;;-1.03;83.26;98052.44;5056755;28;20055;-74
2021/03/18 05:30:07;;;;;;;6.15;4.40;;;;;;;-1.15;83.10;98033.56;5056686;28;20029;-74
2021/03/18 05:32:33;;;;;;;6.40;4.43;;;;;;;-0.89;82.91;98051.31;5050628;28;20452;-75
2021/03/18 05:34:58;;;;;;;6.55;4.57;;;;;;;-0.77;82.59;98054.09;5043185;28;20112;-74
2021/03/18 05:37:24;;;;;;;;;;;;;;;-0.59;81.53;98070.22;5057204;28;20045;-75
2021/03/18 05:39:49;;;;;;;13.38;4.78;;;;;;;-0.45;82.74;98077.13;5053185;28;20666;-74
2021/03/18 05:42:15;;;;;;;;;;;;;;;-0.50;81.73;98074.25;5035584;28;20482;-74
2021/03/18 05:44:46;;;;;;;11.40;4.70;;;;;;;-0.62;81.17;98063.44;5038675;28;19913;-73
2021/03/18 05:47:11;;;;;;;10.85;5.40;;;;;;;-0.77;82.00;98051.41;5046416;28;20025;-75
2021/03/18 05:49:37;;;;;;;8.55;5.55;;;;;;;-0.70;82.40;98070.97;5056606;28;20367;-74
2021/03/18 05:52:07;;;;;;;15.90;5.70;;;;;;;-0.73;82.41;98069.53;5054807;28;20029;-74
2021/03/18 05:54:36;;;;;;;14.35;5.70;;;;;;;-0.67;82.47;98074.03;5053597;28;20060;-73
2021/03/18 05:57:02;;;;;;;8.82;5.70;;;;;;;-0.42;81.59;98071.31;5054962;28;20484;-74
2021/03/18 05:59:28;;;;;;;11.15;5.28;;;;;;;-0.43;81.62;98069.66;5056798;28;20037;-73
2021/03/18 06:01:55;;;;;;;12.32;6.68;;;;;;;-0.42;81.65;98070.47;5058175;28;20043;-75
2021/03/18 06:04:22;;;;;;;12.73;7.25;;;;;;;-0.07;80.96;98077.75;5053436;28;20052;-73
2021/03/18 06:06:49;;;;;;;13.38;8.43;;;;;;;-0.17;80.61;98080.13;5052418;28;20044;-73
2021/03/18 06:09:15;;;;;;;11.98;7.15;;;;;;;0.10;80.17;98077.09;5051631;28;20028;-73
2021/03/18 06:11:40;;;;;;;17.58;7.38;;;;;;;0.37;79.08;98081.13;5048677;28;20026;-74
2021/03/18 06:14:05;;;;;;;;;;;;;;;0.14;79.61;98083.69;5049616;28;20177;-73
2021/03/18 06:16:31;;;;;;;14.98;6.88;;;;;;;0.51;78.66;98078.00;5051319;28;19917;-73
2021/03/18 06:18:59;;;;;;;;;;;;;;;0.84;77.38;98088.31;5050159;28;20020;-73
2021/03/18 06:22:00;;;;;;;12.38;7.95;;;;;;;0.45;77.88;98081.63;5048910;28;19916;-74
2021/03/18 06:24:28;;;;;;;12.52;7.82;;;;;;;0.21;78.66;98065.59;5009752;28;20029;-73
2021/03/18 06:26:54;;;;;;;16.05;8.98;;;;;;;0.17;79.44;98086.75;5038780;28;20041;-75
2021/03/18 06:29:32;;;;;;;17.50;8.68;;;;;;;0.21;79.19;98087.94;5049627;28;20025;-74
2021/03/18 06:32:14;;;;;;;9.80;8.00;;;;;;;0.45;78.62;98076.25;5049797;28;20032;-74
2021/03/18 06:34:44;;;;;;;16.90;8.20;;;;;;;0.47;78.52;98092.16;5050737;28;20029;-74
2021/03/18 06:37:32;;;;;;;14.30;8.02;;;;;;;0.36;78.73;98091.06;5052202;28;20056;-74
2021/03/18 06:40:19;;;;;;;12.55;8.32;;;;;;;0.32;78.85;98094.41;5054831;28;20499;-75
2021/03/18 06:42:55;;;;;;;17.23;7.82;;;;;;;0.30;78.79;98096.53;5044224;28;20075;-74
2021/03/18 06:45:21;;;;;;;13.35;6.43;;;;;;;0.52;78.42;98092.28;5054463;28;20040;-74
2021/03/18 06:47:51;;;;;;;24.63;12.10;;;;;;;0.92;77.40;98104.13;5053260;28;20114;-75
2021/03/18 06:50:22;;;;;;;23.95;13.38;;;;;;;0.99;76.25;98090.56;5064139;28;20025;-87
2021/03/18 06:52:48;;;;;;;24.52;13.50;;;;;;;1.87;74.03;98101.28;5066390;28;20054;-86
2021/03/18 06:55:32;;;;;;;14.13;8.55;;;;;;;1.55;73.38;98092.75;5064673;28;20025;-89
2021/03/18 06:58:24;;;;;;;23.77;8.68;;;;;;;2.00;72.14;98099.16;5055099;28;20158;-81
2021/03/18 07:00:53;;;;;;;13.88;8.45;;;;;;;2.65;70.33;98107.78;5054762;28;20036;-80
2021/03/18 07:03:31;;;;;;;14.90;8.70;;;;;;;2.51;69.90;98100.19;5061799;28;20036;-71
2021/03/18 07:06:23;;;;;;;19.02;9.90;;;;;;;2.94;71.11;98099.66;5052205;28;20139;-76
2021/03/18 07:09:02;;;;;;;16.90;9.35;;;;;;;2.77;70.29;98107.72;5052240;28;20112;-75
2021/03/18 07:11:27;;;;;;;13.82;7.70;;;;;;;2.89;69.56;98096.84;5050255;28;20036;-74
2021/03/18 07:13:53;;;;;;;13.50;8.25;;;;;;;2.73;68.55;98101.16;5051865;28;20082;-74
2021/03/18 07:16:18;;;;;;;14.18;9.57;;;;;;;2.49;69.93;98076.16;5050755;28;20086;-74
2021/03/18 07:18:58;;;;;;;;;;;;;;;2.65;69.63;98107.78;5050973;28;20033;-74
2021/03/18 07:21:43;;;;;;;12.48;7.30;;;;;;;3.13;70.01;98112.69;5048768;28;20373;-76
2021/03/18 07:24:32;;;;;;;16.38;10.30;;;;;;;2.89;70.12;98111.19;5045106;28;20447;-75
2021/03/18 07:27:06;;;;;;;13.15;8.43;;;;;;;2.37;72.17;98110.47;5046511;28;20113;-75
2021/03/18 07:29:32;;;;;;;19.08;10.13;;;;;;;2.12;71.90;98124.25;5046203;28;20029;-76
2021/03/18 07:31:57;;;;;;;15.63;9.30;;;;;;;2.72;70.26;98114.91;5048318;28;20032;-75
2021/03/18 07:34:25;;;;;;;13.10;8.23;;;;;;;2.90;68.84;98112.84;5048734;28;20021;-75
2021/03/18 07:36:56;;;;;;;14.77;7.93;;;;;;;2.81;69.43;98089.16;5046601;28;20017;-72
2021/03/18 07:39:22;;;;;;;13.23;8.60;;;;;;;3.92;66.58;98086.34;5050221;28;20048;-75
2021/03/18 07:41:48;;;;;;;16.38;6.85;;;;;;;5.07;62.25;98093.41;5049619;28;20045;-77
2021/03/18 07:44:16;;;;;;;13.40;7.25;;;;;;;5.26;62.10;98103.59;5051505;28;20037;-75
2021/03/18 07:46:45;;;;;;;11.02;6.47;;;;;;;5.75;56.70;98095.34;5051457;28;20055;-73
2021/03/18 07:49:15;;;;;;;12.40;5.82;;;;;;;6.37;54.92;98093.56;5051310;28;20035;-74
2021/03/18 07:51:43;;;;;;;12.05;6.97;;;;;;;6.63;54.08;98101.81;5051000;28;20497;-75
2021/03/18 07:54:14;;;;;;;10.65;6.45;;;;;;;7.25;53.25;98109.84;5051776;28;20375;-73
2021/03/18 07:56:48;;;;;;;12.98;7.88;;;;;;;6.91;53.77;98110.34;5050838;28;20124;-74
2021/03/18 07:59:13;;;;;;;17.13;7.90;;;;;;;6.71;54.77;98093.13;5050977;28;20045;-75
2021/03/18 08:01:40;;;;;;;12.25;7.25;;;;;;;7.02;54.00;98111.16;5050806;28;20055;-75
2021/03/18 08:04:12;;;;;;;12.50;7.35;;;;;;;7.44;51.62;98092.72;5049597;28;20078;-75
2021/03/18 08:06:40;;;;;;;12.05;8.30;;;;;;;7.85;51.03;98109.88;5051342;28;20090;-75
2021/03/18 08:09:14;;;;;;;22.23;7.60;;;;;;;8.34;49.86;98114.69;5051459;28;20037;-74
2021/03/18 08:11:42;;;;;;;10.73;7.28;;;;;;;7.55;50.08;98099.78;5051093;28;20048;-75
2021/03/18 08:14:13;;;;;;;12.95;7.57;;;;;;;7.97;49.98;98101.41;5051044;28;20029;-74
2021/03/18 08:16:39;;;;;;;14.35;5.68;;;;;;;9.47;46.13;98103.75;5050237;28;20037;-75
2021/03/18 08:19:07;;;;;;;8.40;5.30;;;;;;;9.83;49.84;98107.03;5051312;28;20487;-74
2021/03/18 08:22:03;;;;;;;9.32;6.57;;;;;;;9.67;45.14;98109.06;5050374;28;20083;-75
2021/03/18 08:24:36;;;;;;;7.45;5.50;;;;;;;9.89;44.75;98084.03;5050798;28;20118;-75
2021/03/18 08:27:27;;;;;;;12.20;6.32;;;;;;;9.43;45.20;98081.66;5032491;28;20481;-75
2021/03/18 08:29:53;;;;;;;9.65;5.47;;;;;;;11.25;47.78;98101.56;5048666;28;20028;-77
2021/03/18 08:32:24;;;;;;;5.45;3.92;;;;;;;11.07;40.15;98099.63;5049191;28;20025;-75
2021/03/18 08:34:56;;;;;;;5.88;4.05;;;;;;;11.23;41.94;98084.63;5049492;28;20033;-74
2021/03/18 08:37:41;;;;;;;5.53;4.03;;;;;;;11.94;39.30;98083.50;5051695;28;20048;-75
2021/03/18 08:40:29;;;;;;;4.40;3.20;;;;;;;10.74;40.73;98099.50;5051258;28;20032;-75
2021/03/18 08:43:06;;;;;;;7.07;3.63;;;;;;;11.50;38.64;98070.22;5050304;28;20033;-75
2021/03/18 08:45:31;;;;;;;4.88;2.90;;;;;;;12.72;39.71;98097.91;5050366;28;20017;-74
2021/03/18 08:48:10;;;;;;;4.53;3.00;;;;;;;12.34;37.04;98091.78;5050812;28;20028;-75
2021/03/18 08:50:35;;;;;;;5.00;3.05;;;;;;;11.64;36.61;98096.59;5050670;28;20029;-75
2021/03/18 08:53:03;;;;;;;4.72;2.60;;;;;;;11.07;37.34;98083.19;5050260;28;20028;-76
2021/03/18 08:55:35;;;;;;;3.20;2.83;;;;;;;11.89;35.88;98091.81;5051195;28;20419;-74
2021/03/18 08:58:01;;;;;;;3.83;2.53;;;;;;;12.34;34.73;98082.78;5050749;28;20052;-75
2021/03/18 09:00:26;;;;;;;5.30;2.25;;;;;;;12.30;36.53;98095.47;5050198;28;20025;-75
2021/03/18 09:02:52;;;;;;;4.45;2.60;;;;;;;12.16;37.40;98089.13;5050093;28;20026;-75
2021/03/18 09:05:20;;;;;;;6.50;3.17;;;;;;;14.12;36.03;98096.91;5050179;28;20381;-75
2021/03/18 09:07:50;;;;;;;6.10;3.88;;;;;;;13.90;32.64;98092.25;5050254;28;20037;-76
2021/03/18 09:10:19;;;;;;;5.45;2.85;;;;;;;13.07;32.10;98090.03;5049781;28;20029;-75
2021/03/18 09:12:44;;;;;;;4.70;2.78;;;;;;;14.63;29.28;98088.13;5049906;28;20110;-75
2021/03/18 09:15:31;;;;;;;6.28;3.08;;;;;;;13.43;30.64;98090.91;5050231;28;20498;-75
2021/03/18 09:18:01;;;;;;;4.05;2.10;;;;;;;12.92;30.50;98071.16;5049733;28;20057;-74
2021/03/18 09:20:31;;;;;;;8.52;1.83;;;;;;;13.31;28.50;98082.41;5049349;28;20071;-75
2021/03/18 09:23:13;;;;;;;2.28;1.45;;;;;;;12.40;29.13;98078.81;5050055;28;20025;-75
2021/03/18 09:25:40;;;;;;;2.55;1.85;;;;;;;11.88;30.98;98055.38;5049840;28;20061;-74
2021/03/18 09:28:07;;;;;;;2.85;2.10;;;;;;;12.47;31.32;98075.69;5049561;28;20040;-75
2021/03/18 09:30:37;;;;;;;2.92;2.03;;;;;;;12.20;30.09;98052.59;5045240;28;20083;-75
2021/03/18 09:33:15;;;;;;;2.63;2.08;;;;;;;12.86;29.99;98079.50;5046584;28;20029;-74
2021/03/18 09:35:41;;;;;;;4.65;1.30;;;;;;;13.22;29.81;98073.25;5049909;28;20389;-75
2021/03/18 09:38:15;;;;;;;2.60;1.85;;;;;;;14.02;28.66;98077.91;5049869;28;20041;-75
2021/03/18 09:40:40;;;;;;;2.80;1.60;;;;;;;14.32;28.55;98046.81;5052868;28;20029;-75
2021/03/18 09:43:06;;;;;;;1.75;1.50;;;;;;;13.89;28.34;98074.94;5053200;28;20058;-75
2021/03/18 09:45:31;;;;;;;3.00;1.75;;;;;;;13.98;30.71;98072.22;5052884;28;20021;-75
2021/03/18 09:47:57;;;;;;;3.15;1.83;;;;;;;12.81;32.14;98057.63;5033810;28;20370;-74
2021/03/18 09:50:25;;;;;;;3.35;1.92;;;;;;;12.25;30.15;98065.38;5033540;28;20022;-75
2021/03/18 09:52:51;;;;;;;2.30;1.60;;;;;;;12.64;32.15;98071.19;5036104;28;20028;-74
2021/03/18 09:55:18;;;;;;;2.13;1.70;;;;;;;12.69;29.17;98059.28;5047796;28;20029;-74
2021/03/18 09:57:43;;;;;;;2.22;1.73;;;;;;;14.49;28.70;98052.44;5054699;28;20021;-75
2021/03/18 10:00:10;;;;;;;2.55;1.70;;;;;;;13.55;28.44;98060.13;5054195;28;20017;-74
2021/03/18 10:02:36;;;;;;;3.00;1.67;;;;;;;12.10;28.81;98057.44;5053330;28;20041;-73
2021/03/18 10:05:02;;;;;;;4.03;1.73;;;;;;;12.53;29.17;98045.06;5053157;28;20087;-73
2021/03/18 10:07:30;;;;;;;1.40;1.30;;;;;;;13.73;27.70;98056.38;5053498;28;20537;-73
2021/03/18 10:09:56;;;;;;;2.90;2.13;;;;;;;14.16;27.41;98043.69;5053324;28;20033;-74
2021/03/18 10:12:22;;;;;;;2.25;1.63;;;;;;;13.95;27.03;98035.16;5052635;28;20477;-74
2021/03/18 10:14:55;;;;;;;2.63;1.70;;;;;;;13.16;28.15;98042.34;5052973;28;20025;-73
2021/03/18 10:17:27;;;;;;;2.58;1.55;;;;;;;10.85;33.08;98041.91;5052943;28;20021;-73
2021/03/18 10:19:55;;;;;;;3.95;1.85;;;;;;;10.17;33.86;98018.44;5052998;28;20044;-73
2021/03/18 10:22:23;;;;;;;2.10;1.60;;;;;;;11.12;31.92;98020.19;5052419;28;20055;-73
2021/03/18 10:25:00;;;;;;;2.60;1.83;;;;;;;11.01;30.70;98013.22;5052203;28;20057;-74
2021/03/18 10:27:30;;;;;;;1.40;1.30;;;;;;;10.91;33.94;98011.44;5052588;28;20017;-73
2021/03/18 10:30:05;;;;;;;3.72;1.95;;;;;;;11.81;30.02;98013.81;5052572;28;20033;-74
2021/03/18 10:32:30;;;;;;;4.03;2.33;;;;;;;12.34;29.62;98014.22;5052478;28;20059;-73
2021/03/18 10:34:55;;;;;;;1.40;1.30;;;;;;;11.90;29.52;98016.72;5052746;28;20021;-73
2021/03/18 10:37:23;;;;;;;3.05;1.50;;;;;;;11.67;29.33;98005.56;5052366;28;20511;-73
2021/03/18 10:39:48;;;;;;;3.85;2.28;;;;;;;10.74;29.75;98014.69;5052689;28;20033;-74
2021/03/18 10:42:15;;;;;;;2.55;1.65;;;;;;;11.06;30.44;97983.03;5051952;28;20504;-74
2021/03/18 10:44:45;;;;;;;2.03;1.50;;;;;;;12.83;30.52;98008.75;5052156;28;20040;-74
2021/03/18 10:47:18;;;;;;;1.60;1.45;;;;;;;12.54;27.32;98001.97;5052532;28;20028;-74
2021/03/18 10:50:07;;;;;;;1.83;1.50;;;;;;;13.10;28.81;97998.81;5051857;28;20029;-74
2021/03/18 10:52:34;;;;;;;2.33;1.33;;;;;;;13.09;27.56;98002.72;5052538;28;20033;-74
2021/03/18 10:54:59;;;;;;;3.67;2.05;;;;;;;12.89;27.25;97999.28;5052176;28;20029;-74
2021/03/18 10:57:26;;;;;;;1.98;1.25;;;;;;;12.82;26.56;97976.91;5051832;28;20492;-74
2021/03/18 10:59:58;;;;;;;1.95;1.40;;;;;;;12.84;27.40;97985.66;5052224;28;20033;-74
2021/03/18 11:02:25;;;;;;;3.42;1.40;;;;;;;13.76;26.55;97974.06;5051782;28;20025;-74
2021/03/18 11:04:59;;;;;;;1.88;1.58;;;;;;;14.09;26.42;97971.00;5051932;28;20162;-74
2021/03/18 11:07:25;;;;;;;1.83;1.20;;;;;;;12.76;27.70;97969.94;5051296;28;20032;-73
2021/03/18 11:10:16;;;;;;;3.05;1.63;;;;;;;12.70;30.92;97971.16;5051391;28;20587;-73
2021/03/18 11:12:55;;;;;;;1.70;1.35;;;;;;;13.21;28.05;97973.56;5051498;28;20032;-74
2021/03/18 11:15:22;;;;;;;2.33;1.48;;;;;;;13.16;28.91;97967.38;5051971;28;20048;-74
2021/03/18 11:18:03;;;;;;;3.55;1.25;;;;;;;12.53;28.32;97961.97;5051817;28;20021;-75
2021/03/18 11:20:34;;;;;;;2.90;1.70;;;;;;;11.40;29.37;97961.69;5051132;28;20029;-73
2021/03/18 11:23:00;;;;;;;3.90;2.03;;;;;;;10.94;32.90;97947.09;5051650;28;20173;-74
2021/03/18 11:25:25;;;;;;;2.58;1.88;;;;;;;10.25;31.25;97945.09;5051702;28;20429;-73
2021/03/18 11:27:52;;;;;;;2.83;1.80;;;;;;;9.89;33.10;97939.22;5051593;28;20024;-73
2021/03/18 11:30:33;;;;;;;3.10;1.65;;;;;;;8.59;33.96;97956.50;5051365;28;20086;-74
2021/03/18 11:33:10;;;;;;;3.83;2.47;;;;;;;8.31;35.27;97946.31;5053124;28;20021;-74
2021/03/18 11:35:35;;;;;;;;;;;;;;;8.45;35.94;97937.25;5056294;28;20025;-73
2021/03/18 11:38:01;;;;;;;2.40;1.83;;;;;;;8.49;36.36;97932.03;5053044;28;19923;-73
2021/03/18 11:40:26;;;;;;;4.22;2.47;;;;;;;8.36;39.21;97928.03;5050954;28;20037;-73
2021/03/18 11:42:52;;;;;;;;;;;;;;;8.60;36.61;97928.16;5050891;28;20024;-74
2021/03/18 11:45:17;;;;;;;2.40;1.88;;;;;;;8.70;34.71;97919.91;5051271;28;20284;-73
2021/03/18 11:47:43;;;;;;;2.42;2.00;;;;;;;8.57;35.13;97915.91;5051243;28;20676;-73
2021/03/18 11:50:09;;;;;;;2.95;1.98;;;;;;;7.78;36.17;97917.91;5050567;28;20389;-74